createdAt,value
2023-02-17T00:01:38.787Z,100.00
2023-02-17T00:04:06.452Z,100.00
2023-02-17T00:06:34.084Z,100.00
2023-02-17T00:09:01.956Z,100.00
2023-02-17T00:11:32.302Z,100.00
2023-02-17T00:14:02.271Z,100.00
2023-02-17T00:16:30.520Z,100.00
2023-02-17T00:19:01.883Z,100.00
2023-02-17T00:21:32.793Z,100.00
2023-02-17T00:24:00.690Z,100.00
2023-02-17T00:26:28.562Z,100.00
2023-02-17T00:28:56.536Z,100.00
2023-02-17T00:31:25.229Z,100.00
2023-02-17T00:33:56.709Z,100.00
2023-02-17T00:36:25.092Z,100.00
2023-02-17T00:38:54.522Z,100.00
2023-02-17T00:41:22.747Z,100.00
2023-02-17T00:43:51.052Z,100.00
2023-02-17T00:46:19.779Z,100.00
2023-02-17T00:48:49.941Z,100.00
2023-02-17T00:51:20.886Z,100.00
2023-02-17T00:53:48.751Z,100.00
2023-02-17T00:56:16.598Z,100.00
2023-02-17T00:58:44.420Z,100.00
2023-02-17T01:01:14.881Z,100.00
2023-02-17T01:03:44.597Z,100.00
2023-02-17T01:06:22.761Z,100.00
2023-02-17T01:08:50.540Z,100.00
2023-02-17T01:11:23.795Z,100.00
2023-02-17T01:13:51.472Z,100.00
2023-02-17T01:16:22.706Z,100.00
2023-02-17T01:18:50.717Z,100.00
2023-02-17T01:21:24.306Z,100.00
2023-02-17T01:23:54.268Z,100.00
2023-02-17T01:26:24.708Z,100.00
2023-02-17T01:28:56.307Z,100.00
2023-02-17T01:31:24.892Z,100.00
2023-02-17T01:33:52.524Z,100.00
2023-02-17T01:36:21.733Z,100.00
2023-02-17T01:38:50.935Z,100.00
2023-02-17T01:41:21.180Z,100.00
2023-02-17T01:44:11.506Z,100.00
2023-02-17T01:46:43.795Z,100.00
2023-02-17T01:49:30.401Z,100.00
2023-02-17T01:52:04.484Z,99.71
2023-02-17T01:54:42.340Z,99.77
2023-02-17T01:57:11.962Z,100.00
2023-02-17T01:59:39.954Z,100.00
2023-02-17T02:02:08.156Z,100.00
2023-02-17T02:04:41.774Z,100.00
2023-02-17T02:07:19.642Z,100.00
2023-02-17T02:09:56.138Z,100.00
2023-02-17T02:12:29.272Z,100.00
2023-02-17T02:15:01.785Z,100.00
2023-02-17T02:17:41.324Z,100.00
2023-02-17T02:20:09.550Z,100.00
2023-02-17T02:23:14.832Z,100.00
2023-02-17T02:26:16.691Z,100.00
2023-02-17T02:28:52.397Z,100.00
2023-02-17T02:31:25.873Z,100.00
2023-02-17T02:34:09.212Z,100.00
2023-02-17T02:37:03.211Z,100.00
2023-02-17T02:39:36.107Z,100.00
2023-02-17T02:42:11.064Z,100.00
2023-02-17T02:44:41.330Z,100.00
2023-02-17T02:47:37.847Z,100.00
2023-02-17T02:50:06.136Z,100.00
2023-02-17T02:52:58.141Z,100.00
2023-02-17T02:55:44.727Z,99.77
2023-02-17T02:58:19.719Z,99.86
2023-02-17T03:01:06.961Z,99.66
2023-02-17T03:03:40.284Z,99.02
2023-02-17T03:06:20.971Z,98.61
2023-02-17T03:09:04.088Z,97.75
2023-02-17T03:11:35.185Z,97.14
2023-02-17T03:14:09.778Z,96.90
2023-02-17T03:16:42.187Z,96.30
2023-02-17T03:19:12.164Z,96.39
2023-02-17T03:21:48.643Z,96.57
2023-02-17T03:24:18.910Z,96.73
2023-02-17T03:26:48.996Z,96.85
2023-02-17T03:29:16.809Z,96.89
2023-02-17T03:31:44.584Z,96.90
2023-02-17T03:34:14.605Z,96.93
2023-02-17T03:36:42.231Z,96.99
2023-02-17T03:39:09.873Z,96.73
2023-02-17T03:41:38.059Z,96.78
2023-02-17T03:44:08.641Z,96.90
2023-02-17T03:46:36.666Z,96.87
2023-02-17T03:49:09.265Z,96.84
2023-02-17T03:51:36.892Z,97.16
2023-02-17T03:54:04.999Z,97.12
2023-02-17T03:56:33.233Z,97.13
2023-02-17T03:59:01.016Z,97.11
2023-02-17T04:01:28.740Z,97.19
2023-02-17T04:03:58.900Z,97.22
2023-02-17T04:06:26.765Z,97.14
2023-02-17T04:08:54.416Z,97.17
2023-02-17T04:11:22.138Z,97.38
2023-02-17T04:13:54.372Z,97.31
2023-02-17T04:16:23.441Z,97.47
2023-02-17T04:18:53.893Z,97.72
2023-02-17T04:21:21.536Z,97.93
2023-02-17T04:23:49.278Z,98.22
2023-02-17T04:26:16.897Z,98.37
2023-02-17T04:28:45.105Z,98.36
2023-02-17T04:31:15.400Z,98.47
2023-02-17T04:33:43.094Z,98.38
2023-02-17T04:36:11.568Z,98.27
2023-02-17T04:38:42.035Z,98.18
2023-02-17T04:41:09.629Z,98.15
2023-02-17T04:43:39.709Z,98.17
2023-02-17T04:46:07.768Z,97.89
2023-02-17T04:48:35.583Z,97.82
2023-02-17T04:51:03.199Z,97.86
2023-02-17T04:53:33.382Z,97.92
2023-02-17T04:56:00.983Z,97.91
2023-02-17T04:58:28.680Z,98.03
2023-02-17T05:01:00.282Z,98.22
2023-02-17T05:03:27.919Z,98.22
2023-02-17T05:05:55.690Z,98.23
2023-02-17T05:08:23.274Z,98.18
2023-02-17T05:10:53.938Z,98.19
2023-02-17T05:13:21.572Z,98.21
2023-02-17T05:15:49.283Z,98.15
2023-02-17T05:18:16.929Z,97.92
2023-02-17T05:20:44.568Z,97.84
2023-02-17T05:23:12.244Z,97.60
2023-02-17T05:25:41.143Z,97.24
2023-02-17T05:28:08.755Z,96.75
2023-02-17T05:30:38.528Z,95.92
2023-02-17T05:33:08.602Z,95.98
2023-02-17T05:35:40.212Z,95.62
2023-02-17T05:38:07.804Z,95.46
2023-02-17T05:40:35.400Z,95.42
2023-02-17T05:43:03.093Z,95.21
2023-02-17T05:45:30.777Z,94.55
2023-02-17T05:47:58.398Z,93.99
2023-02-17T05:50:26.290Z,93.56
2023-02-17T05:52:56.257Z,93.48
2023-02-17T05:55:23.896Z,92.97
2023-02-17T05:57:51.508Z,92.70
2023-02-17T06:00:19.387Z,92.44
2023-02-17T06:02:47.018Z,91.98
2023-02-17T06:05:15.179Z,91.79
2023-02-17T06:07:43.936Z,91.98
2023-02-17T06:10:12.061Z,91.20
2023-02-17T06:12:39.695Z,91.37
2023-02-17T06:15:10.198Z,91.31
2023-02-17T06:17:39.018Z,91.00
2023-02-17T06:20:07.827Z,90.83
2023-02-17T06:22:39.823Z,90.79
2023-02-17T06:25:07.876Z,90.59
2023-02-17T06:27:35.906Z,90.45
2023-02-17T06:30:06.627Z,90.29
2023-02-17T06:32:34.753Z,89.65
2023-02-17T06:35:02.483Z,88.91
2023-02-17T06:37:30.437Z,88.11
2023-02-17T06:39:59.066Z,87.25
2023-02-17T06:42:26.860Z,86.51
2023-02-17T06:44:54.970Z,85.72
2023-02-17T06:47:22.599Z,86.36
2023-02-17T06:49:50.808Z,85.30
2023-02-17T06:52:18.599Z,84.07
2023-02-17T06:54:47.259Z,83.78
2023-02-17T06:57:14.909Z,83.12
2023-02-17T06:59:42.510Z,82.04
2023-02-17T07:02:16.379Z,81.63
2023-02-17T07:04:44.547Z,81.47
2023-02-17T07:07:12.751Z,80.69
2023-02-17T07:09:44.036Z,81.02
2023-02-17T07:12:11.771Z,80.82
2023-02-17T07:14:39.499Z,81.41
2023-02-17T07:17:07.135Z,80.26
2023-02-17T07:19:34.758Z,80.07
2023-02-17T07:22:02.534Z,79.40
2023-02-17T07:24:30.339Z,78.79
2023-02-17T07:26:58.020Z,78.88
2023-02-17T07:29:25.678Z,79.28
2023-02-17T07:31:55.432Z,77.95
2023-02-17T07:34:23.280Z,78.13
2023-02-17T07:36:51.157Z,78.18
2023-02-17T07:39:19.782Z,77.45
2023-02-17T07:41:49.902Z,76.54
2023-02-17T07:44:17.517Z,76.24
2023-02-17T07:46:45.157Z,76.25
2023-02-17T07:49:14.829Z,76.01
2023-02-17T07:51:42.611Z,75.87
2023-02-17T07:54:14.316Z,75.85
2023-02-17T07:56:42.058Z,75.86
2023-02-17T07:59:16.248Z,76.16
2023-02-17T08:01:44.230Z,74.84
2023-02-17T08:04:14.376Z,74.24
2023-02-17T08:06:42.013Z,73.79
2023-02-17T08:09:29.744Z,73.55
2023-02-17T08:12:15.314Z,73.20
2023-02-17T08:14:43.015Z,73.08
2023-02-17T08:17:10.686Z,72.55
2023-02-17T08:19:48.165Z,71.54
2023-02-17T08:22:19.751Z,71.14
2023-02-17T08:24:47.796Z,69.27
2023-02-17T08:27:16.653Z,68.26
2023-02-17T08:29:45.096Z,67.38
2023-02-17T08:32:14.170Z,65.48
2023-02-17T08:34:41.999Z,64.96
2023-02-17T08:37:12.824Z,65.29
2023-02-17T08:39:40.581Z,64.98
2023-02-17T08:42:08.238Z,64.74
2023-02-17T08:44:37.704Z,63.34
2023-02-17T08:47:06.384Z,62.22
2023-02-17T08:49:37.030Z,63.16
2023-02-17T08:52:05.434Z,62.62
2023-02-17T08:54:35.589Z,63.20
2023-02-17T08:57:03.469Z,64.18
2023-02-17T08:59:31.316Z,64.13
2023-02-17T09:01:59.044Z,64.72
2023-02-17T09:04:27.057Z,63.77
2023-02-17T09:06:57.285Z,63.38
2023-02-17T09:09:28.883Z,62.44
2023-02-17T09:11:58.705Z,61.34
2023-02-17T09:14:26.678Z,60.17
2023-02-17T09:16:55.577Z,58.79
2023-02-17T09:19:25.221Z,55.66
2023-02-17T09:21:53.060Z,55.72
2023-02-17T09:24:20.858Z,51.00
2023-02-17T09:26:48.602Z,51.58
2023-02-17T09:29:16.199Z,50.68
2023-02-17T09:31:47.778Z,49.29
2023-02-17T09:34:15.608Z,48.17
2023-02-17T09:36:45.822Z,49.25
2023-02-17T09:39:14.958Z,49.31
2023-02-17T09:41:47.748Z,50.19
2023-02-17T09:44:20.118Z,51.14
2023-02-17T09:47:08.402Z,50.91
2023-02-17T09:50:05.120Z,51.32
2023-02-17T09:53:02.380Z,50.81
2023-02-17T09:55:34.646Z,51.32
2023-02-17T09:58:28.013Z,52.01
2023-02-17T10:01:02.336Z,52.58
2023-02-17T10:03:43.178Z,52.43
2023-02-17T10:06:10.930Z,53.14
2023-02-17T10:08:57.499Z,53.58
2023-02-17T10:11:40.658Z,53.32
2023-02-17T10:14:18.465Z,53.76
2023-02-17T10:17:36.555Z,53.83
2023-02-17T10:20:11.932Z,54.06
2023-02-17T10:22:41.120Z,53.62
2023-02-17T10:25:21.243Z,53.46
2023-02-17T10:28:05.047Z,53.59
2023-02-17T10:30:46.178Z,53.40
2023-02-17T10:33:18.424Z,53.30
2023-02-17T10:36:09.095Z,53.16
2023-02-17T10:38:53.571Z,53.22
2023-02-17T10:41:29.050Z,53.38
2023-02-17T10:43:57.102Z,54.44
2023-02-17T10:46:31.254Z,54.39
2023-02-17T10:49:02.361Z,54.45
2023-02-17T10:51:32.473Z,55.68
2023-02-17T10:54:22.926Z,56.02
2023-02-17T10:57:06.627Z,56.02
2023-02-17T10:59:43.881Z,56.02
2023-02-17T11:02:23.026Z,55.87
2023-02-17T11:04:55.025Z,55.91
2023-02-17T11:07:35.193Z,56.21
2023-02-17T11:10:20.586Z,56.75
2023-02-17T11:12:49.786Z,57.00
2023-02-17T11:15:28.087Z,56.67
2023-02-17T11:18:01.537Z,56.44
2023-02-17T11:20:35.720Z,55.89
2023-02-17T11:23:25.299Z,55.85
2023-02-17T11:26:02.242Z,55.59
2023-02-17T11:28:30.642Z,55.40
2023-02-17T11:31:03.123Z,54.89
2023-02-17T11:33:42.502Z,54.70
2023-02-17T11:36:24.616Z,54.40
2023-02-17T11:38:52.574Z,53.74
2023-02-17T11:41:20.889Z,53.38
2023-02-17T11:43:58.618Z,53.51
2023-02-17T11:46:29.736Z,53.62
2023-02-17T11:49:06.560Z,53.73
2023-02-17T11:51:59.490Z,53.60
2023-02-17T11:55:01.383Z,53.77
2023-02-17T11:57:29.411Z,54.03
2023-02-17T12:00:22.750Z,54.71
2023-02-17T12:03:22.159Z,54.90
2023-02-17T12:06:25.121Z,55.38
2023-02-17T12:09:24.294Z,55.23
2023-02-17T12:12:00.993Z,55.94
2023-02-17T12:15:04.276Z,56.41
2023-02-17T12:17:53.330Z,56.90
2023-02-17T12:20:49.826Z,57.01
2023-02-17T12:23:20.119Z,57.33
2023-02-17T12:26:32.085Z,57.60
2023-02-17T12:29:24.171Z,57.55
2023-02-17T12:32:38.112Z,57.78
2023-02-17T12:35:53.168Z,57.55
2023-02-17T12:38:31.699Z,58.00
2023-02-17T12:41:17.655Z,57.82
2023-02-17T12:43:50.756Z,56.72
2023-02-17T12:46:30.341Z,56.73
2023-02-17T12:49:05.978Z,57.44
2023-02-17T12:51:41.999Z,57.23
2023-02-17T12:54:25.621Z,57.30
2023-02-17T12:57:11.254Z,56.88
2023-02-17T12:59:46.552Z,56.62
2023-02-17T13:02:17.010Z,56.73
2023-02-17T13:04:47.093Z,56.81
2023-02-17T13:07:45.430Z,57.30
2023-02-17T13:10:28.075Z,57.81
2023-02-17T13:13:01.398Z,58.28
2023-02-17T13:15:39.857Z,58.67
2023-02-17T13:18:12.377Z,59.30
2023-02-17T13:20:45.782Z,59.63
2023-02-17T13:23:27.520Z,61.72
2023-02-17T13:26:16.872Z,61.41
2023-02-17T13:28:45.410Z,63.66
2023-02-17T13:31:21.091Z,63.98
2023-02-17T13:33:52.367Z,64.57
2023-02-17T13:36:31.466Z,64.48
2023-02-17T13:39:03.050Z,65.14
2023-02-17T13:41:44.302Z,64.32
2023-02-17T13:44:30.625Z,64.79
2023-02-17T13:47:23.377Z,64.80
2023-02-17T13:49:56.881Z,64.30
2023-02-17T13:52:27.686Z,64.57
2023-02-17T13:54:58.344Z,64.23
2023-02-17T13:57:31.164Z,64.29
2023-02-17T14:00:09.173Z,64.19
2023-02-17T14:02:40.499Z,64.15
2023-02-17T14:05:20.257Z,64.00
2023-02-17T14:07:49.690Z,63.94
2023-02-17T14:10:24.840Z,64.20
2023-02-17T14:12:56.292Z,63.78
2023-02-17T14:15:27.453Z,63.63
2023-02-17T14:17:56.896Z,64.21
2023-02-17T14:20:37.708Z,64.34
2023-02-17T14:23:14.510Z,64.87
2023-02-17T14:25:47.251Z,65.26
2023-02-17T14:28:30.608Z,65.57
2023-02-17T14:31:09.618Z,66.10
2023-02-17T14:33:40.517Z,66.64
2023-02-17T14:36:14.090Z,66.15
2023-02-17T14:38:42.988Z,66.94
2023-02-17T14:41:13.268Z,66.81
2023-02-17T14:43:40.916Z,67.56
2023-02-17T14:46:08.845Z,67.74
2023-02-17T14:48:40.487Z,68.33
2023-02-17T14:51:16.731Z,68.44
2023-02-17T14:53:46.988Z,68.79
2023-02-17T14:56:35.290Z,69.11
2023-02-17T14:59:03.213Z,68.68
2023-02-17T15:01:33.445Z,69.01
2023-02-17T15:04:02.881Z,69.22
2023-02-17T15:06:43.458Z,69.05
2023-02-17T15:09:16.906Z,69.26
2023-02-17T15:11:49.013Z,69.35
2023-02-17T15:14:20.215Z,69.37
2023-02-17T15:16:49.149Z,69.39
2023-02-17T15:19:18.692Z,69.24
2023-02-17T15:21:51.651Z,69.33
2023-02-17T15:24:23.352Z,69.49
2023-02-17T15:26:51.183Z,69.62
2023-02-17T15:29:22.152Z,69.36
2023-02-17T15:31:51.502Z,70.12
2023-02-17T15:34:22.356Z,70.29
2023-02-17T15:36:52.645Z,70.44
2023-02-17T15:39:22.536Z,70.51
2023-02-17T15:41:53.162Z,70.86
2023-02-17T15:44:26.864Z,71.27
2023-02-17T15:46:57.295Z,70.72
2023-02-17T15:49:25.536Z,70.47
2023-02-17T15:51:55.723Z,71.04
2023-02-17T15:54:24.547Z,72.12
2023-02-17T15:56:55.368Z,73.52
2023-02-17T15:59:27.189Z,73.72
2023-02-17T16:01:57.875Z,74.03
2023-02-17T16:04:29.377Z,74.70
2023-02-17T16:06:58.729Z,75.27
2023-02-17T16:09:26.407Z,73.83
2023-02-17T16:11:57.434Z,73.89
2023-02-17T16:14:29.622Z,74.96
2023-02-17T16:16:59.767Z,75.10
2023-02-17T16:19:30.018Z,75.80
2023-02-17T16:21:57.669Z,76.56
2023-02-17T16:24:30.011Z,76.82
2023-02-17T16:27:00.495Z,77.53
2023-02-17T16:29:28.323Z,77.91
2023-02-17T16:31:56.468Z,78.32
2023-02-17T16:34:25.933Z,78.13
2023-02-17T16:36:58.749Z,78.81
2023-02-17T16:39:28.953Z,79.11
2023-02-17T16:41:56.719Z,79.93
2023-02-17T16:44:24.685Z,80.10
2023-02-17T16:46:57.795Z,80.54
2023-02-17T16:49:33.280Z,80.30
2023-02-17T16:52:03.215Z,79.82
2023-02-17T16:54:32.374Z,80.40
2023-02-17T16:57:01.087Z,80.82
2023-02-17T16:59:31.009Z,80.68
2023-02-17T17:01:58.880Z,81.38
2023-02-17T17:04:26.641Z,81.82
2023-02-17T17:06:54.348Z,82.26
2023-02-17T17:09:25.427Z,82.42
2023-02-17T17:11:53.317Z,82.94
2023-02-17T17:14:23.501Z,82.59
2023-02-17T17:16:56.557Z,83.10
2023-02-17T17:19:25.699Z,83.38
2023-02-17T17:21:54.233Z,83.82
2023-02-17T17:24:25.196Z,84.03
2023-02-17T17:26:52.798Z,84.72
2023-02-17T17:29:23.373Z,84.90
2023-02-17T17:31:51.180Z,85.44
2023-02-17T17:34:20.030Z,85.93
2023-02-17T17:36:50.897Z,86.28
2023-02-17T17:39:21.991Z,86.46
2023-02-17T17:41:53.744Z,86.86
2023-02-17T17:44:21.886Z,86.53
2023-02-17T17:46:51.883Z,87.38
2023-02-17T17:49:19.553Z,87.98
2023-02-17T17:51:47.468Z,87.84
2023-02-17T17:54:16.560Z,87.84
2023-02-17T17:56:44.741Z,88.12
2023-02-17T17:59:13.649Z,87.73
2023-02-17T18:01:45.136Z,87.83
2023-02-17T18:04:13.553Z,87.94
2023-02-17T18:06:51.773Z,88.07
2023-02-17T18:09:31.773Z,88.35
2023-02-17T18:12:05.557Z,88.74
2023-02-17T18:14:34.377Z,88.89
2023-02-17T18:17:02.183Z,89.37
2023-02-17T18:19:31.461Z,88.92
2023-02-17T18:21:59.188Z,89.00
2023-02-17T18:24:26.972Z,88.86
2023-02-17T18:26:54.753Z,88.86
2023-02-17T18:29:22.750Z,89.17
2023-02-17T18:31:53.186Z,89.32
2023-02-17T18:34:23.010Z,89.47
2023-02-17T18:36:50.609Z,90.04
2023-02-17T18:39:18.296Z,90.00
2023-02-17T18:41:48.490Z,90.04
2023-02-17T18:44:18.923Z,90.46
2023-02-17T18:46:47.986Z,90.80
2023-02-17T18:49:15.736Z,91.00
2023-02-17T18:51:45.558Z,91.51
2023-02-17T18:54:14.119Z,92.28
2023-02-17T18:56:41.851Z,92.12
2023-02-17T18:59:12.238Z,92.99
2023-02-17T19:01:41.003Z,92.48
2023-02-17T19:04:09.721Z,93.03
2023-02-17T19:06:40.467Z,93.54
2023-02-17T19:09:08.398Z,93.39
2023-02-17T19:11:36.623Z,94.20
2023-02-17T19:14:05.735Z,94.20
2023-02-17T19:16:35.959Z,94.37
2023-02-17T19:19:04.481Z,94.15
2023-02-17T19:21:35.939Z,94.26
2023-02-17T19:24:06.552Z,94.87
2023-02-17T19:26:34.540Z,94.75
2023-02-17T19:29:02.152Z,95.57
2023-02-17T19:31:32.319Z,95.54
2023-02-17T19:34:00.088Z,95.54
2023-02-17T19:36:27.798Z,95.59
2023-02-17T19:38:57.941Z,95.49
2023-02-17T19:41:26.167Z,95.68
2023-02-17T19:43:54.011Z,95.65
2023-02-17T19:46:23.112Z,96.25
2023-02-17T19:48:50.933Z,96.13
2023-02-17T19:51:18.660Z,96.46
2023-02-17T19:53:46.321Z,96.49
2023-02-17T19:56:14.209Z,96.20
2023-02-17T19:58:44.002Z,97.33
2023-02-17T20:01:18.029Z,96.80
2023-02-17T20:03:47.324Z,96.05
2023-02-17T20:06:21.065Z,96.53
2023-02-17T20:08:54.457Z,96.83
2023-02-17T20:11:25.562Z,96.47
2023-02-17T20:13:57.545Z,96.25
2023-02-17T20:16:25.361Z,96.78
2023-02-17T20:18:55.184Z,97.09
2023-02-17T20:21:26.053Z,97.24
2023-02-17T20:23:57.313Z,96.47
2023-02-17T20:26:30.117Z,97.22
2023-02-17T20:28:59.040Z,96.83
2023-02-17T20:31:27.742Z,96.72
2023-02-17T20:33:55.542Z,96.23
2023-02-17T20:36:23.220Z,95.66
2023-02-17T20:38:51.519Z,95.25
2023-02-17T20:41:24.531Z,94.06
2023-02-17T20:43:53.244Z,93.51
2023-02-17T20:46:29.692Z,91.96
2023-02-17T20:48:57.494Z,90.48
2023-02-17T20:51:27.616Z,88.01
2023-02-17T20:53:55.340Z,83.56
2023-02-17T20:56:25.283Z,81.94
2023-02-17T20:58:54.338Z,80.14
2023-02-17T21:01:25.740Z,79.08
2023-02-17T21:03:53.377Z,77.11
2023-02-17T21:06:30.007Z,74.96
2023-02-17T21:09:01.077Z,73.40
2023-02-17T21:11:29.957Z,73.14
2023-02-17T21:14:00.906Z,71.86
2023-02-17T21:16:31.341Z,71.11
2023-02-17T21:19:01.181Z,70.12
2023-02-17T21:21:29.919Z,71.60
2023-02-17T21:23:58.649Z,70.71
2023-02-17T21:26:27.547Z,70.74
2023-02-17T21:28:55.518Z,70.75
2023-02-17T21:31:23.409Z,69.66
2023-02-17T21:33:51.101Z,69.97
2023-02-17T21:36:19.743Z,69.68
2023-02-17T21:38:48.374Z,68.99
2023-02-17T21:41:18.926Z,70.18
2023-02-17T21:44:04.925Z,70.04
2023-02-17T21:46:32.863Z,70.34
2023-02-17T21:49:02.214Z,69.97
2023-02-17T21:51:38.494Z,69.59
2023-02-17T21:54:08.539Z,69.40
2023-02-17T21:56:36.676Z,68.79
2023-02-17T21:59:05.069Z,69.66
2023-02-17T22:01:33.013Z,69.06
2023-02-17T22:04:04.186Z,69.51
2023-02-17T22:06:37.579Z,69.44
2023-02-17T22:09:06.940Z,69.62
2023-02-17T22:11:37.690Z,69.25
2023-02-17T22:14:11.088Z,69.85
2023-02-17T22:16:40.624Z,69.55
2023-02-17T22:19:10.682Z,69.48
2023-02-17T22:21:39.640Z,69.48
2023-02-17T22:24:09.929Z,69.67
2023-02-17T22:26:37.910Z,69.26
2023-02-17T22:29:06.583Z,69.13
2023-02-17T22:31:36.811Z,69.09
2023-02-17T22:34:07.833Z,69.19
2023-02-17T22:36:40.938Z,69.42
2023-02-17T22:39:10.050Z,69.38
2023-02-17T22:41:38.863Z,69.42
2023-02-17T22:44:06.603Z,69.66
2023-02-17T22:46:37.011Z,69.85
2023-02-17T22:49:04.662Z,70.15
2023-02-17T22:51:36.773Z,70.23
2023-02-17T22:54:07.880Z,70.33
2023-02-17T22:56:35.663Z,70.27
2023-02-17T22:59:04.921Z,70.56
2023-02-17T23:01:35.239Z,70.54
2023-02-17T23:04:03.367Z,70.39
2023-02-17T23:06:38.784Z,70.43
2023-02-17T23:09:11.337Z,70.71
2023-02-17T23:11:54.838Z,70.72
2023-02-17T23:14:34.896Z,70.76
2023-02-17T23:17:08.592Z,70.89
2023-02-17T23:19:40.366Z,71.15
2023-02-17T23:22:11.188Z,71.00
2023-02-17T23:24:44.357Z,71.45
2023-02-17T23:27:17.615Z,71.60
2023-02-17T23:29:45.255Z,71.83
2023-02-17T23:32:15.230Z,72.07
2023-02-17T23:34:45.817Z,71.95
2023-02-17T23:37:13.781Z,72.06
2023-02-17T23:39:43.697Z,72.10
2023-02-17T23:42:13.773Z,72.99
2023-02-17T23:44:44.605Z,72.86
2023-02-17T23:47:12.878Z,72.68
2023-02-17T23:49:40.528Z,73.27
2023-02-17T23:52:11.180Z,74.52
2023-02-17T23:54:44.415Z,74.39
2023-02-17T23:57:12.103Z,75.31
2023-02-17T23:59:41.217Z,75.47
